sensor_id;sensor_type;location;lat;lon;timestamp;temperature;humidity
2625;DHT22;1322;53.256;10.386;2023-03-14T00:01:12;12.30;99.90
2625;DHT22;1322;53.256;10.386;2023-03-14T00:03:38;12.30;99.90
2625;DHT22;1322;53.256;10.386;2023-03-14T00:06:04;12.30;99.90
2625;DHT22;1322;53.256;10.386;2023-03-14T00:08:30;12.40;99.90
2625;DHT22;1322;53.256;10.386;2023-03-14T00:10:56;12.50;99.90
2625;DHT22;1322;53.256;10.386;2023-03-14T00:13:23;12.60;99.90
2625;DHT22;1322;53.256;10.386;2023-03-14T00:15:49;12.60;99.90
2625;DHT22;1322;53.256;10.386;2023-03-14T00:18:15;12.60;99.90
2625;DHT22;1322;53.256;10.386;2023-03-14T00:20:40;12.60;99.90
2625;DHT22;1322;53.256;10.386;2023-03-14T00:23:09;12.70;99.90
2625;DHT22;1322;53.256;10.386;2023-03-14T00:25:35;12.70;99.90
2625;DHT22;1322;53.256;10.386;2023-03-14T00:28:00;12.70;99.90
2625;DHT22;1322;53.256;10.386;2023-03-14T00:30:26;12.80;99.90
2625;DHT22;1322;53.256;10.386;2023-03-14T00:32:51;12.70;99.90
2625;DHT22;1322;53.256;10.386;2023-03-14T00:35:17;12.80;99.90
2625;DHT22;1322;53.256;10.386;2023-03-14T00:37:43;12.80;99.90
2625;DHT22;1322;53.256;10.386;2023-03-14T00:40:09;12.90;99.90
2625;DHT22;1322;53.256;10.386;2023-03-14T00:42:35;12.90;99.90
2625;DHT22;1322;53.256;10.386;2023-03-14T00:45:00;12.90;99.90
2625;DHT22;1322;53.256;10.386;2023-03-14T00:47:26;12.80;99.90
2625;DHT22;1322;53.256;10.386;2023-03-14T00:49:52;12.80;99.90
2625;DHT22;1322;53.256;10.386;2023-03-14T00:52:17;12.80;99.90
2625;DHT22;1322;53.256;10.386;2023-03-14T00:54:43;12.80;99.90
2625;DHT22;1322;53.256;10.386;2023-03-14T00:57:08;12.70;99.90
2625;DHT22;1322;53.256;10.386;2023-03-14T00:59:34;12.70;99.90
2625;DHT22;1322;53.256;10.386;2023-03-14T01:02:00;12.60;99.90
2625;DHT22;1322;53.256;10.386;2023-03-14T01:04:25;12.60;99.90
2625;DHT22;1322;53.256;10.386;2023-03-14T01:06:51;12.50;99.90
2625;DHT22;1322;53.256;10.386;2023-03-14T01:09:16;12.50;99.90
2625;DHT22;1322;53.256;10.386;2023-03-14T01:11:43;12.40;99.90
2625;DHT22;1322;53.256;10.386;2023-03-14T01:14:12;12.40;99.90
2625;DHT22;1322;53.256;10.386;2023-03-14T01:16:38;12.30;99.90
2625;DHT22;1322;53.256;10.386;2023-03-14T01:19:03;12.40;99.90
2625;DHT22;1322;53.256;10.386;2023-03-14T01:21:34;12.40;99.90
2625;DHT22;1322;53.256;10.386;2023-03-14T01:24:04;12.40;99.90
2625;DHT22;1322;53.256;10.386;2023-03-14T01:26:32;12.40;99.90
2625;DHT22;1322;53.256;10.386;2023-03-14T01:28:59;12.30;99.90
2625;DHT22;1322;53.256;10.386;2023-03-14T01:31:25;12.30;99.90
2625;DHT22;1322;53.256;10.386;2023-03-14T01:33:52;12.40;99.90
2625;DHT22;1322;53.256;10.386;2023-03-14T01:36:18;12.30;99.90
2625;DHT22;1322;53.256;10.386;2023-03-14T01:38:44;12.40;99.90
2625;DHT22;1322;53.256;10.386;2023-03-14T01:41:16;12.30;99.90
2625;DHT22;1322;53.256;10.386;2023-03-14T01:43:42;12.30;99.90
2625;DHT22;1322;53.256;10.386;2023-03-14T01:46:19;12.30;99.90
2625;DHT22;1322;53.256;10.386;2023-03-14T01:48:53;12.30;99.90
2625;DHT22;1322;53.256;10.386;2023-03-14T01:51:53;12.30;99.90
2625;DHT22;1322;53.256;10.386;2023-03-14T01:56:57;12.40;99.90
2625;DHT22;1322;53.256;10.386;2023-03-14T01:59:26;12.50;99.90
2625;DHT22;1322;53.256;10.386;2023-03-14T02:01:54;12.60;99.90
2625;DHT22;1322;53.256;10.386;2023-03-14T02:04:21;12.60;99.90
2625;DHT22;1322;53.256;10.386;2023-03-14T02:06:55;12.60;99.90
2625;DHT22;1322;53.256;10.386;2023-03-14T02:09:22;12.60;99.90
2625;DHT22;1322;53.256;10.386;2023-03-14T02:11:49;12.60;99.90
2625;DHT22;1322;53.256;10.386;2023-03-14T02:14:25;12.60;99.90
2625;DHT22;1322;53.256;10.386;2023-03-14T02:16:53;12.60;99.90
2625;DHT22;1322;53.256;10.386;2023-03-14T02:19:28;12.50;99.90
2625;DHT22;1322;53.256;10.386;2023-03-14T02:22:09;12.50;99.90
2625;DHT22;1322;53.256;10.386;2023-03-14T02:27:43;12.40;99.90
2625;DHT22;1322;53.256;10.386;2023-03-14T02:30:13;12.30;99.90
2625;DHT22;1322;53.256;10.386;2023-03-14T02:32:44;12.20;99.90
2625;DHT22;1322;53.256;10.386;2023-03-14T02:35:12;12.20;99.90
2625;DHT22;1322;53.256;10.386;2023-03-14T02:37:59;12.10;99.90
2625;DHT22;1322;53.256;10.386;2023-03-14T02:40:26;12.10;99.90
2625;DHT22;1322;53.256;10.386;2023-03-14T02:42:51;12.00;99.90
2625;DHT22;1322;53.256;10.386;2023-03-14T02:47:55;12.00;99.90
2625;DHT22;1322;53.256;10.386;2023-03-14T02:50:24;12.00;99.90
2625;DHT22;1322;53.256;10.386;2023-03-14T02:52:51;11.90;99.90
2625;DHT22;1322;53.256;10.386;2023-03-14T02:55:21;11.90;99.90
2625;DHT22;1322;53.256;10.386;2023-03-14T02:57:47;11.90;99.90
2625;DHT22;1322;53.256;10.386;2023-03-14T03:00:13;12.00;99.90
2625;DHT22;1322;53.256;10.386;2023-03-14T03:02:38;12.00;99.90
2625;DHT22;1322;53.256;10.386;2023-03-14T03:05:04;12.00;99.90
2625;DHT22;1322;53.256;10.386;2023-03-14T03:07:30;12.10;99.90
2625;DHT22;1322;53.256;10.386;2023-03-14T03:09:56;12.00;99.90
2625;DHT22;1322;53.256;10.386;2023-03-14T03:12:21;12.10;99.90
2625;DHT22;1322;53.256;10.386;2023-03-14T03:14:47;12.10;99.90
2625;DHT22;1322;53.256;10.386;2023-03-14T03:17:12;12.10;99.90
2625;DHT22;1322;53.256;10.386;2023-03-14T03:19:38;12.00;99.90
2625;DHT22;1322;53.256;10.386;2023-03-14T03:22:04;11.90;99.90
2625;DHT22;1322;53.256;10.386;2023-03-14T03:24:29;11.90;99.90
2625;DHT22;1322;53.256;10.386;2023-03-14T03:26:55;11.90;99.90
2625;DHT22;1322;53.256;10.386;2023-03-14T03:29:21;11.90;99.90
2625;DHT22;1322;53.256;10.386;2023-03-14T03:31:46;11.80;99.90
2625;DHT22;1322;53.256;10.386;2023-03-14T03:34:13;11.80;99.90
2625;DHT22;1322;53.256;10.386;2023-03-14T03:36:39;11.80;99.90
2625;DHT22;1322;53.256;10.386;2023-03-14T03:39:04;11.80;99.90
2625;DHT22;1322;53.256;10.386;2023-03-14T03:41:31;11.80;99.90
2625;DHT22;1322;53.256;10.386;2023-03-14T03:43:57;11.70;99.90
2625;DHT22;1322;53.256;10.386;2023-03-14T03:46:23;11.70;99.90
2625;DHT22;1322;53.256;10.386;2023-03-14T03:48:57;11.70;99.90
2625;DHT22;1322;53.256;10.386;2023-03-14T03:51:23;11.70;99.90
2625;DHT22;1322;53.256;10.386;2023-03-14T03:53:49;11.70;99.90
2625;DHT22;1322;53.256;10.386;2023-03-14T03:56:15;11.70;99.90
2625;DHT22;1322;53.256;10.386;2023-03-14T03:58:40;11.70;99.90
2625;DHT22;1322;53.256;10.386;2023-03-14T04:01:08;11.70;99.90
2625;DHT22;1322;53.256;10.386;2023-03-14T04:03:34;11.80;99.90
2625;DHT22;1322;53.256;10.386;2023-03-14T04:06:02;11.70;99.90
2625;DHT22;1322;53.256;10.386;2023-03-14T04:08:28;11.70;99.90
2625;DHT22;1322;53.256;10.386;2023-03-14T04:10:58;11.70;99.90
2625;DHT22;1322;53.256;10.386;2023-03-14T04:13:25;11.70;99.90
2625;DHT22;1322;53.256;10.386;2023-03-14T04:15:51;11.60;99.90
2625;DHT22;1322;53.256;10.386;2023-03-14T04:18:17;11.60;99.90
2625;DHT22;1322;53.256;10.386;2023-03-14T04:20:43;11.60;99.90
2625;DHT22;1322;53.256;10.386;2023-03-14T04:23:08;11.50;99.90
2625;DHT22;1322;53.256;10.386;2023-03-14T04:25:34;11.50;99.90
2625;DHT22;1322;53.256;10.386;2023-03-14T04:27:59;11.40;99.90
2625;DHT22;1322;53.256;10.386;2023-03-14T04:30:25;11.40;99.90
2625;DHT22;1322;53.256;10.386;2023-03-14T04:32:50;11.40;99.90
2625;DHT22;1322;53.256;10.386;2023-03-14T04:35:16;11.50;99.90
2625;DHT22;1322;53.256;10.386;2023-03-14T04:37:42;11.60;99.90
2625;DHT22;1322;53.256;10.386;2023-03-14T04:40:09;11.60;99.90
2625;DHT22;1322;53.256;10.386;2023-03-14T04:42:35;11.70;99.90
2625;DHT22;1322;53.256;10.386;2023-03-14T04:45:01;11.80;99.90
2625;DHT22;1322;53.256;10.386;2023-03-14T04:47:27;11.80;99.90
2625;DHT22;1322;53.256;10.386;2023-03-14T04:49:53;11.70;99.90
2625;DHT22;1322;53.256;10.386;2023-03-14T04:52:18;11.80;99.90
2625;DHT22;1322;53.256;10.386;2023-03-14T04:54:44;11.80;99.90
2625;DHT22;1322;53.256;10.386;2023-03-14T04:57:09;11.80;99.90
2625;DHT22;1322;53.256;10.386;2023-03-14T04:59:35;11.90;99.90
2625;DHT22;1322;53.256;10.386;2023-03-14T05:02:01;11.90;99.90
2625;DHT22;1322;53.256;10.386;2023-03-14T05:04:26;12.00;99.90
2625;DHT22;1322;53.256;10.386;2023-03-14T05:06:52;12.00;99.90
2625;DHT22;1322;53.256;10.386;2023-03-14T05:09:17;12.10;99.90
2625;DHT22;1322;53.256;10.386;2023-03-14T05:11:43;12.00;99.90
2625;DHT22;1322;53.256;10.386;2023-03-14T05:14:09;12.00;99.90
2625;DHT22;1322;53.256;10.386;2023-03-14T05:16:34;12.00;99.90
2625;DHT22;1322;53.256;10.386;2023-03-14T05:19:00;11.90;99.90
2625;DHT22;1322;53.256;10.386;2023-03-14T05:21:27;11.90;99.90
2625;DHT22;1322;53.256;10.386;2023-03-14T05:23:52;11.80;99.90
2625;DHT22;1322;53.256;10.386;2023-03-14T05:26:18;11.90;99.90
2625;DHT22;1322;53.256;10.386;2023-03-14T05:28:44;11.90;99.90
2625;DHT22;1322;53.256;10.386;2023-03-14T05:31:10;11.80;99.90
2625;DHT22;1322;53.256;10.386;2023-03-14T05:33:35;11.90;99.90
2625;DHT22;1322;53.256;10.386;2023-03-14T05:36:01;11.80;99.90
2625;DHT22;1322;53.256;10.386;2023-03-14T05:38:26;11.80;99.90
2625;DHT22;1322;53.256;10.386;2023-03-14T05:40:52;11.80;99.90
2625;DHT22;1322;53.256;10.386;2023-03-14T05:43:18;11.80;99.90
2625;DHT22;1322;53.256;10.386;2023-03-14T05:45:43;11.70;99.90
2625;DHT22;1322;53.256;10.386;2023-03-14T05:48:09;11.60;99.90
2625;DHT22;1322;53.256;10.386;2023-03-14T05:50:35;11.50;99.90
2625;DHT22;1322;53.256;10.386;2023-03-14T05:53:01;11.40;99.90
2625;DHT22;1322;53.256;10.386;2023-03-14T05:55:26;11.30;99.90
2625;DHT22;1322;53.256;10.386;2023-03-14T05:57:53;11.40;99.90
2625;DHT22;1322;53.256;10.386;2023-03-14T06:00:19;11.30;99.90
2625;DHT22;1322;53.256;10.386;2023-03-14T06:02:45;11.30;99.90
2625;DHT22;1322;53.256;10.386;2023-03-14T06:05:11;11.40;99.90
2625;DHT22;1322;53.256;10.386;2023-03-14T06:07:37;11.40;99.90
2625;DHT22;1322;53.256;10.386;2023-03-14T06:10:03;11.40;99.90
2625;DHT22;1322;53.256;10.386;2023-03-14T06:12:28;11.50;99.90
2625;DHT22;1322;53.256;10.386;2023-03-14T06:14:54;11.50;99.90
2625;DHT22;1322;53.256;10.386;2023-03-14T06:17:20;11.60;99.90
2625;DHT22;1322;53.256;10.386;2023-03-14T06:19:45;11.60;99.90
2625;DHT22;1322;53.256;10.386;2023-03-14T06:22:11;11.60;99.90
2625;DHT22;1322;53.256;10.386;2023-03-14T06:24:37;11.60;99.90
2625;DHT22;1322;53.256;10.386;2023-03-14T06:27:02;11.50;99.90
2625;DHT22;1322;53.256;10.386;2023-03-14T06:29:29;11.60;99.90
2625;DHT22;1322;53.256;10.386;2023-03-14T06:31:55;11.70;99.90
2625;DHT22;1322;53.256;10.386;2023-03-14T06:34:21;11.70;99.90
2625;DHT22;1322;53.256;10.386;2023-03-14T06:36:46;11.70;99.90
2625;DHT22;1322;53.256;10.386;2023-03-14T06:39:12;11.60;99.90
2625;DHT22;1322;53.256;10.386;2023-03-14T06:41:38;11.60;99.90
2625;DHT22;1322;53.256;10.386;2023-03-14T06:44:04;11.70;99.90
2625;DHT22;1322;53.256;10.386;2023-03-14T06:46:30;11.80;99.90
2625;DHT22;1322;53.256;10.386;2023-03-14T06:48:57;11.80;99.90
2625;DHT22;1322;53.256;10.386;2023-03-14T06:51:25;11.90;99.90
2625;DHT22;1322;53.256;10.386;2023-03-14T06:53:51;11.90;99.90
2625;DHT22;1322;53.256;10.386;2023-03-14T06:56:17;11.80;99.90
2625;DHT22;1322;53.256;10.386;2023-03-14T06:58:42;11.80;99.90
2625;DHT22;1322;53.256;10.386;2023-03-14T07:01:20;11.80;99.90
2625;DHT22;1322;53.256;10.386;2023-03-14T07:03:46;11.70;99.90
2625;DHT22;1322;53.256;10.386;2023-03-14T07:06:12;11.70;99.90
2625;DHT22;1322;53.256;10.386;2023-03-14T07:08:37;11.60;99.90
2625;DHT22;1322;53.256;10.386;2023-03-14T07:11:04;11.60;99.90
2625;DHT22;1322;53.256;10.386;2023-03-14T07:13:33;11.60;99.90
2625;DHT22;1322;53.256;10.386;2023-03-14T07:15:58;11.60;99.90
2625;DHT22;1322;53.256;10.386;2023-03-14T07:18:24;11.60;99.90
2625;DHT22;1322;53.256;10.386;2023-03-14T07:20:50;11.60;99.90
2625;DHT22;1322;53.256;10.386;2023-03-14T07:23:15;11.60;99.90
2625;DHT22;1322;53.256;10.386;2023-03-14T07:25:44;11.60;99.90
2625;DHT22;1322;53.256;10.386;2023-03-14T07:28:09;11.60;99.90
2625;DHT22;1322;53.256;10.386;2023-03-14T07:30:35;11.40;99.90
2625;DHT22;1322;53.256;10.386;2023-03-14T07:33:00;11.50;99.90
2625;DHT22;1322;53.256;10.386;2023-03-14T07:35:26;11.50;99.90
2625;DHT22;1322;53.256;10.386;2023-03-14T07:37:52;11.50;99.90
2625;DHT22;1322;53.256;10.386;2023-03-14T07:40:17;11.60;99.90
2625;DHT22;1322;53.256;10.386;2023-03-14T07:42:43;11.70;99.90
2625;DHT22;1322;53.256;10.386;2023-03-14T07:45:13;11.70;99.90
2625;DHT22;1322;53.256;10.386;2023-03-14T07:47:38;11.90;99.90
2625;DHT22;1322;53.256;10.386;2023-03-14T07:50:04;12.00;99.90
2625;DHT22;1322;53.256;10.386;2023-03-14T07:52:30;12.10;99.90
2625;DHT22;1322;53.256;10.386;2023-03-14T07:54:56;12.30;99.90
2625;DHT22;1322;53.256;10.386;2023-03-14T07:57:22;12.30;99.90
2625;DHT22;1322;53.256;10.386;2023-03-14T07:59:47;12.30;99.90
2625;DHT22;1322;53.256;10.386;2023-03-14T08:02:13;12.30;99.90
2625;DHT22;1322;53.256;10.386;2023-03-14T08:04:40;12.50;99.90
2625;DHT22;1322;53.256;10.386;2023-03-14T08:07:05;12.60;99.90
2625;DHT22;1322;53.256;10.386;2023-03-14T08:09:31;12.70;99.90
2625;DHT22;1322;53.256;10.386;2023-03-14T08:12:00;12.80;99.90
2625;DHT22;1322;53.256;10.386;2023-03-14T08:14:26;12.90;99.90
2625;DHT22;1322;53.256;10.386;2023-03-14T08:16:52;13.10;99.90
2625;DHT22;1322;53.256;10.386;2023-03-14T08:19:17;13.20;99.90
2625;DHT22;1322;53.256;10.386;2023-03-14T08:21:43;13.30;99.90
2625;DHT22;1322;53.256;10.386;2023-03-14T08:24:09;13.30;99.90
2625;DHT22;1322;53.256;10.386;2023-03-14T08:26:34;13.40;99.90
2625;DHT22;1322;53.256;10.386;2023-03-14T08:29:00;13.30;99.90
2625;DHT22;1322;53.256;10.386;2023-03-14T08:31:26;13.40;99.90
2625;DHT22;1322;53.256;10.386;2023-03-14T08:33:52;13.60;99.90
2625;DHT22;1322;53.256;10.386;2023-03-14T08:36:19;13.60;99.90
2625;DHT22;1322;53.256;10.386;2023-03-14T08:38:45;13.70;99.90
2625;DHT22;1322;53.256;10.386;2023-03-14T08:41:11;13.70;99.90
2625;DHT22;1322;53.256;10.386;2023-03-14T08:43:37;13.60;99.90
2625;DHT22;1322;53.256;10.386;2023-03-14T08:46:03;13.60;99.90
2625;DHT22;1322;53.256;10.386;2023-03-14T08:48:30;13.50;99.90
2625;DHT22;1322;53.256;10.386;2023-03-14T08:50:56;13.50;99.90
2625;DHT22;1322;53.256;10.386;2023-03-14T08:53:22;13.40;99.90
2625;DHT22;1322;53.256;10.386;2023-03-14T08:55:53;13.40;99.90
2625;DHT22;1322;53.256;10.386;2023-03-14T08:58:19;13.60;99.90
2625;DHT22;1322;53.256;10.386;2023-03-14T09:00:45;13.60;99.90
2625;DHT22;1322;53.256;10.386;2023-03-14T09:03:10;13.60;99.90
2625;DHT22;1322;53.256;10.386;2023-03-14T09:05:36;13.80;99.90
2625;DHT22;1322;53.256;10.386;2023-03-14T09:08:02;13.90;99.90
2625;DHT22;1322;53.256;10.386;2023-03-14T09:10:27;14.00;99.90
2625;DHT22;1322;53.256;10.386;2023-03-14T09:12:53;14.10;99.90
2625;DHT22;1322;53.256;10.386;2023-03-14T09:15:18;14.30;99.90
2625;DHT22;1322;53.256;10.386;2023-03-14T09:17:44;14.40;99.90
2625;DHT22;1322;53.256;10.386;2023-03-14T09:20:10;14.30;99.90
2625;DHT22;1322;53.256;10.386;2023-03-14T09:22:36;14.40;99.90
2625;DHT22;1322;53.256;10.386;2023-03-14T09:25:03;14.30;99.90
2625;DHT22;1322;53.256;10.386;2023-03-14T09:27:29;14.20;99.90
2625;DHT22;1322;53.256;10.386;2023-03-14T09:29:54;14.30;99.90
2625;DHT22;1322;53.256;10.386;2023-03-14T09:32:20;14.20;99.90
2625;DHT22;1322;53.256;10.386;2023-03-14T09:34:49;14.30;99.90
2625;DHT22;1322;53.256;10.386;2023-03-14T09:37:14;14.40;99.90
2625;DHT22;1322;53.256;10.386;2023-03-14T09:39:41;14.30;99.90
2625;DHT22;1322;53.256;10.386;2023-03-14T09:42:10;14.30;99.90
2625;DHT22;1322;53.256;10.386;2023-03-14T09:44:45;14.40;99.90
2625;DHT22;1322;53.256;10.386;2023-03-14T09:47:13;14.40;99.90
2625;DHT22;1322;53.256;10.386;2023-03-14T09:49:40;14.60;99.90
2625;DHT22;1322;53.256;10.386;2023-03-14T09:52:23;14.70;99.90
2625;DHT22;1322;53.256;10.386;2023-03-14T09:54:52;14.40;99.90
2625;DHT22;1322;53.256;10.386;2023-03-14T09:57:22;14.60;99.90
2625;DHT22;1322;53.256;10.386;2023-03-14T09:59:54;14.70;99.90
2625;DHT22;1322;53.256;10.386;2023-03-14T10:02:25;14.80;99.90
2625;DHT22;1322;53.256;10.386;2023-03-14T10:04:53;14.80;99.90
2625;DHT22;1322;53.256;10.386;2023-03-14T10:07:28;14.80;99.90
2625;DHT22;1322;53.256;10.386;2023-03-14T10:09:54;14.90;99.90
2625;DHT22;1322;53.256;10.386;2023-03-14T10:12:21;15.20;99.90
2625;DHT22;1322;53.256;10.386;2023-03-14T10:14:55;15.20;99.90
2625;DHT22;1322;53.256;10.386;2023-03-14T10:17:20;15.20;99.90
2625;DHT22;1322;53.256;10.386;2023-03-14T10:19:57;15.20;99.90
2625;DHT22;1322;53.256;10.386;2023-03-14T10:22:30;15.00;99.90
2625;DHT22;1322;53.256;10.386;2023-03-14T10:25:06;14.90;99.90
2625;DHT22;1322;53.256;10.386;2023-03-14T10:27:43;14.50;99.90
2625;DHT22;1322;53.256;10.386;2023-03-14T10:30:27;14.40;99.90
2625;DHT22;1322;53.256;10.386;2023-03-14T10:32:55;14.30;99.90
2625;DHT22;1322;53.256;10.386;2023-03-14T10:35:22;14.20;99.90
2625;DHT22;1322;53.256;10.386;2023-03-14T10:38:00;14.00;99.90
2625;DHT22;1322;53.256;10.386;2023-03-14T10:40:39;13.40;99.90
2625;DHT22;1322;53.256;10.386;2023-03-14T10:43:11;13.30;99.90
2625;DHT22;1322;53.256;10.386;2023-03-14T10:45:42;13.10;99.90
2625;DHT22;1322;53.256;10.386;2023-03-14T10:51:09;13.00;99.90
2625;DHT22;1322;53.256;10.386;2023-03-14T10:53:41;13.00;99.90
2625;DHT22;1322;53.256;10.386;2023-03-14T10:56:10;12.40;99.90
2625;DHT22;1322;53.256;10.386;2023-03-14T10:58:41;11.30;99.90
2625;DHT22;1322;53.256;10.386;2023-03-14T11:01:53;10.50;99.90
2625;DHT22;1322;53.256;10.386;2023-03-14T11:04:05;9.90;99.90
2625;DHT22;1322;53.256;10.386;2023-03-14T11:06:39;9.40;99.90
2625;DHT22;1322;53.256;10.386;2023-03-14T11:11:47;9.20;99.90
2625;DHT22;1322;53.256;10.386;2023-03-14T11:33:31;8.30;99.90
2625;DHT22;1322;53.256;10.386;2023-03-14T11:38:52;7.80;99.90
2625;DHT22;1322;53.256;10.386;2023-03-14T11:41:28;7.50;99.90
2625;DHT22;1322;53.256;10.386;2023-03-14T11:43:59;7.20;99.90
2625;DHT22;1322;53.256;10.386;2023-03-14T11:46:41;7.30;99.90
2625;DHT22;1322;53.256;10.386;2023-03-14T11:51:56;6.70;99.90
2625;DHT22;1322;53.256;10.386;2023-03-14T11:54:44;6.70;99.90
2625;DHT22;1322;53.256;10.386;2023-03-14T11:57:14;6.60;99.90
2625;DHT22;1322;53.256;10.386;2023-03-14T12:00:18;6.40;99.90
2625;DHT22;1322;53.256;10.386;2023-03-14T12:05:31;6.40;99.90
2625;DHT22;1322;53.256;10.386;2023-03-14T12:10:52;6.40;99.90
2625;DHT22;1322;53.256;10.386;2023-03-14T12:13:19;6.20;99.90
2625;DHT22;1322;53.256;10.386;2023-03-14T12:16:00;6.20;99.90
2625;DHT22;1322;53.256;10.386;2023-03-14T12:18:27;6.10;99.90
2625;DHT22;1322;53.256;10.386;2023-03-14T12:20:56;6.10;99.90
2625;DHT22;1322;53.256;10.386;2023-03-14T12:23:23;6.00;99.90
2625;DHT22;1322;53.256;10.386;2023-03-14T12:26:13;5.90;99.90
2625;DHT22;1322;53.256;10.386;2023-03-14T12:28:51;5.80;99.90
2625;DHT22;1322;53.256;10.386;2023-03-14T12:34:25;5.70;99.90
2625;DHT22;1322;53.256;10.386;2023-03-14T12:36:56;5.60;99.90
2625;DHT22;1322;53.256;10.386;2023-03-14T12:50:28;5.70;99.90
2625;DHT22;1322;53.256;10.386;2023-03-14T12:55:36;5.70;99.90
2625;DHT22;1322;53.256;10.386;2023-03-14T13:01:28;5.50;99.90
2625;DHT22;1322;53.256;10.386;2023-03-14T13:03:57;5.60;99.90
2625;DHT22;1322;53.256;10.386;2023-03-14T13:06:57;5.60;99.90
2625;DHT22;1322;53.256;10.386;2023-03-14T13:12:01;5.70;99.90
2625;DHT22;1322;53.256;10.386;2023-03-14T13:14:29;5.70;99.90
2625;DHT22;1322;53.256;10.386;2023-03-14T13:16:59;5.80;99.90
2625;DHT22;1322;53.256;10.386;2023-03-14T13:19:30;5.90;99.90
2625;DHT22;1322;53.256;10.386;2023-03-14T13:22:04;6.00;99.90
2625;DHT22;1322;53.256;10.386;2023-03-14T13:24:33;6.20;99.90
2625;DHT22;1322;53.256;10.386;2023-03-14T13:27:02;6.40;99.90
2625;DHT22;1322;53.256;10.386;2023-03-14T13:29:30;6.50;99.90
2625;DHT22;1322;53.256;10.386;2023-03-14T13:32:02;6.70;99.90
2625;DHT22;1322;53.256;10.386;2023-03-14T13:34:38;6.70;99.90
2625;DHT22;1322;53.256;10.386;2023-03-14T13:37:03;6.70;99.90
2625;DHT22;1322;53.256;10.386;2023-03-14T13:39:31;6.70;99.90
2625;DHT22;1322;53.256;10.386;2023-03-14T13:41:59;6.60;99.90
2625;DHT22;1322;53.256;10.386;2023-03-14T13:44:34;6.50;99.90
2625;DHT22;1322;53.256;10.386;2023-03-14T13:47:01;6.30;99.90
2625;DHT22;1322;53.256;10.386;2023-03-14T13:49:29;6.20;99.90
2625;DHT22;1322;53.256;10.386;2023-03-14T13:51:56;6.20;99.90
2625;DHT22;1322;53.256;10.386;2023-03-14T13:54:22;6.20;99.90
2625;DHT22;1322;53.256;10.386;2023-03-14T13:57:03;6.20;99.90
2625;DHT22;1322;53.256;10.386;2023-03-14T13:59:31;6.20;99.90
2625;DHT22;1322;53.256;10.386;2023-03-14T14:02:00;6.30;99.90
2625;DHT22;1322;53.256;10.386;2023-03-14T14:04:29;6.50;99.90
2625;DHT22;1322;53.256;10.386;2023-03-14T14:06:59;6.70;99.90
2625;DHT22;1322;53.256;10.386;2023-03-14T14:09:30;6.80;99.90
2625;DHT22;1322;53.256;10.386;2023-03-14T14:12:03;6.90;99.90
2625;DHT22;1322;53.256;10.386;2023-03-14T14:14:45;7.10;99.90
2625;DHT22;1322;53.256;10.386;2023-03-14T14:17:17;7.00;99.90
2625;DHT22;1322;53.256;10.386;2023-03-14T14:19:44;7.00;99.90
2625;DHT22;1322;53.256;10.386;2023-03-14T14:22:11;7.10;99.90
2625;DHT22;1322;53.256;10.386;2023-03-14T14:24:37;7.10;99.90
2625;DHT22;1322;53.256;10.386;2023-03-14T14:27:17;7.10;99.90
2625;DHT22;1322;53.256;10.386;2023-03-14T14:29:44;7.00;99.90
2625;DHT22;1322;53.256;10.386;2023-03-14T14:32:14;6.90;99.90
2625;DHT22;1322;53.256;10.386;2023-03-14T14:37:41;7.00;99.90
2625;DHT22;1322;53.256;10.386;2023-03-14T14:40:19;7.10;99.90
2625;DHT22;1322;53.256;10.386;2023-03-14T14:42:46;7.10;99.90
2625;DHT22;1322;53.256;10.386;2023-03-14T14:45:26;7.10;99.90
2625;DHT22;1322;53.256;10.386;2023-03-14T14:52:57;6.90;99.90
2625;DHT22;1322;53.256;10.386;2023-03-14T14:55:28;6.90;99.90
2625;DHT22;1322;53.256;10.386;2023-03-14T14:57:55;6.90;99.90
2625;DHT22;1322;53.256;10.386;2023-03-14T15:00:26;6.80;99.90
2625;DHT22;1322;53.256;10.386;2023-03-14T15:02:54;6.90;99.90
2625;DHT22;1322;53.256;10.386;2023-03-14T15:05:26;6.70;99.90
2625;DHT22;1322;53.256;10.386;2023-03-14T15:07:52;6.80;99.90
2625;DHT22;1322;53.256;10.386;2023-03-14T15:10:20;6.80;99.90
2625;DHT22;1322;53.256;10.386;2023-03-14T15:12:46;6.80;99.90
2625;DHT22;1322;53.256;10.386;2023-03-14T15:15:16;6.80;99.90
2625;DHT22;1322;53.256;10.386;2023-03-14T15:17:42;6.80;99.90
2625;DHT22;1322;53.256;10.386;2023-03-14T15:20:13;6.80;99.90
2625;DHT22;1322;53.256;10.386;2023-03-14T15:22:40;6.80;99.90
2625;DHT22;1322;53.256;10.386;2023-03-14T15:25:06;6.90;99.90
2625;DHT22;1322;53.256;10.386;2023-03-14T15:27:33;6.80;99.90
2625;DHT22;1322;53.256;10.386;2023-03-14T15:29:58;6.80;99.90
2625;DHT22;1322;53.256;10.386;2023-03-14T15:32:25;6.60;99.90
2625;DHT22;1322;53.256;10.386;2023-03-14T15:34:54;6.60;99.90
2625;DHT22;1322;53.256;10.386;2023-03-14T15:37:20;6.60;99.90
2625;DHT22;1322;53.256;10.386;2023-03-14T15:39:46;6.50;99.90
2625;DHT22;1322;53.256;10.386;2023-03-14T15:42:12;6.60;99.90
2625;DHT22;1322;53.256;10.386;2023-03-14T15:44:37;6.70;99.90
2625;DHT22;1322;53.256;10.386;2023-03-14T15:47:04;6.70;99.90
2625;DHT22;1322;53.256;10.386;2023-03-14T15:49:31;6.80;99.90
2625;DHT22;1322;53.256;10.386;2023-03-14T15:51:57;6.80;99.90
2625;DHT22;1322;53.256;10.386;2023-03-14T15:54:22;6.70;99.90
2625;DHT22;1322;53.256;10.386;2023-03-14T15:56:48;6.80;99.90
2625;DHT22;1322;53.256;10.386;2023-03-14T15:59:13;6.80;99.90
2625;DHT22;1322;53.256;10.386;2023-03-14T16:01:39;6.70;99.90
2625;DHT22;1322;53.256;10.386;2023-03-14T16:04:05;6.70;99.90
2625;DHT22;1322;53.256;10.386;2023-03-14T16:06:30;6.70;99.90
2625;DHT22;1322;53.256;10.386;2023-03-14T16:08:56;6.60;99.90
2625;DHT22;1322;53.256;10.386;2023-03-14T16:11:22;6.60;99.90
2625;DHT22;1322;53.256;10.386;2023-03-14T16:13:48;6.50;99.90
2625;DHT22;1322;53.256;10.386;2023-03-14T16:16:14;6.50;99.90
2625;DHT22;1322;53.256;10.386;2023-03-14T16:18:39;6.50;99.90
2625;DHT22;1322;53.256;10.386;2023-03-14T16:21:08;6.40;99.90
2625;DHT22;1322;53.256;10.386;2023-03-14T16:23:36;6.40;99.90
2625;DHT22;1322;53.256;10.386;2023-03-14T16:26:10;6.50;99.90
2625;DHT22;1322;53.256;10.386;2023-03-14T16:28:36;6.50;99.90
2625;DHT22;1322;53.256;10.386;2023-03-14T16:31:07;6.50;99.90
2625;DHT22;1322;53.256;10.386;2023-03-14T16:33:34;6.50;99.90
2625;DHT22;1322;53.256;10.386;2023-03-14T16:36:02;6.40;99.90
2625;DHT22;1322;53.256;10.386;2023-03-14T16:38:33;6.30;99.90
2625;DHT22;1322;53.256;10.386;2023-03-14T16:41:05;6.30;99.90
2625;DHT22;1322;53.256;10.386;2023-03-14T16:43:31;6.20;99.90
2625;DHT22;1322;53.256;10.386;2023-03-14T16:45:59;6.20;99.90
2625;DHT22;1322;53.256;10.386;2023-03-14T16:48:26;6.20;99.90
2625;DHT22;1322;53.256;10.386;2023-03-14T16:50:52;6.20;99.90
2625;DHT22;1322;53.256;10.386;2023-03-14T16:53:18;6.30;99.90
2625;DHT22;1322;53.256;10.386;2023-03-14T16:55:44;6.30;99.90
2625;DHT22;1322;53.256;10.386;2023-03-14T16:58:10;6.20;99.90
2625;DHT22;1322;53.256;10.386;2023-03-14T17:00:37;6.30;99.90
2625;DHT22;1322;53.256;10.386;2023-03-14T17:03:03;6.30;99.90
2625;DHT22;1322;53.256;10.386;2023-03-14T17:05:30;6.20;99.90
2625;DHT22;1322;53.256;10.386;2023-03-14T17:07:55;6.10;99.90
2625;DHT22;1322;53.256;10.386;2023-03-14T17:10:21;6.00;99.90